sensor_id;sensor_type;location;lat;lon;timestamp;pressure;altitude;pressure_sealevel;temperature;humidity
46955;BME280;32708;51.212;6.788;2023-05-08T00:01:15;101375.56;;;22.58;100.00
46955;BME280;32708;51.212;6.788;2023-05-08T00:03:42;101381.94;;;21.81;100.00
46955;BME280;32708;51.212;6.788;2023-05-08T00:06:08;101375.09;;;21.75;100.00
46955;BME280;32708;51.212;6.788;2023-05-08T00:08:34;101379.69;;;21.93;100.00
46955;BME280;32708;51.212;6.788;2023-05-08T00:11:01;101382.69;;;22.11;100.00
46955;BME280;32708;51.212;6.788;2023-05-08T00:13:27;101378.22;;;22.07;100.00
46955;BME280;32708;51.212;6.788;2023-05-08T00:15:53;101379.09;;;22.55;100.00
46955;BME280;32708;51.212;6.788;2023-05-08T00:18:19;101380.94;;;22.37;100.00
46955;BME280;32708;51.212;6.788;2023-05-08T00:20:46;101380.66;;;22.52;100.00
46955;BME280;32708;51.212;6.788;2023-05-08T00:23:15;101361.75;;;22.72;100.00
46955;BME280;32708;51.212;6.788;2023-05-08T00:25:41;101366.03;;;22.63;100.00
46955;BME280;32708;51.212;6.788;2023-05-08T00:28:07;101370.28;;;22.49;100.00
46955;BME280;32708;51.212;6.788;2023-05-08T00:30:34;101370.72;;;22.51;100.00
46955;BME280;32708;51.212;6.788;2023-05-08T00:33:00;101375.91;;;22.53;100.00
46955;BME280;32708;51.212;6.788;2023-05-08T00:35:26;101376.03;;;22.71;100.00
46955;BME280;32708;51.212;6.788;2023-05-08T00:37:53;101389.75;;;22.46;100.00
46955;BME280;32708;51.212;6.788;2023-05-08T00:40:19;101381.34;;;22.39;100.00
46955;BME280;32708;51.212;6.788;2023-05-08T00:42:45;101373.81;;;22.43;100.00
46955;BME280;32708;51.212;6.788;2023-05-08T00:47:38;101386.22;;;22.08;100.00
46955;BME280;32708;51.212;6.788;2023-05-08T00:50:05;101387.09;;;21.82;100.00
46955;BME280;32708;51.212;6.788;2023-05-08T00:52:32;101388.13;;;22.04;100.00
46955;BME280;32708;51.212;6.788;2023-05-08T00:55:01;101387.78;;;22.46;100.00
46955;BME280;32708;51.212;6.788;2023-05-08T00:57:31;101381.41;;;22.46;100.00
46955;BME280;32708;51.212;6.788;2023-05-08T01:00:00;101379.88;;;22.52;100.00
46955;BME280;32708;51.212;6.788;2023-05-08T01:02:29;101383.59;;;22.22;100.00
46955;BME280;32708;51.212;6.788;2023-05-08T01:04:56;101390.81;;;22.31;100.00
46955;BME280;32708;51.212;6.788;2023-05-08T01:07:22;101386.06;;;22.31;100.00
46955;BME280;32708;51.212;6.788;2023-05-08T01:09:49;101392.00;;;22.30;100.00
46955;BME280;32708;51.212;6.788;2023-05-08T01:12:51;101390.63;;;22.09;100.00
46955;BME280;32708;51.212;6.788;2023-05-08T01:15:33;101390.31;;;22.21;100.00
46955;BME280;32708;51.212;6.788;2023-05-08T01:20:41;101387.59;;;21.91;100.00
46955;BME280;32708;51.212;6.788;2023-05-08T01:26:56;101392.81;;;21.96;100.00
46955;BME280;32708;51.212;6.788;2023-05-08T01:32:54;101401.00;;;22.16;100.00
46955;BME280;32708;51.212;6.788;2023-05-08T01:35:55;101400.63;;;21.84;100.00
46955;BME280;32708;51.212;6.788;2023-05-08T01:39:04;101397.88;;;21.54;100.00
46955;BME280;32708;51.212;6.788;2023-05-08T01:41:38;101403.22;;;21.69;100.00
46955;BME280;32708;51.212;6.788;2023-05-08T01:44:20;101399.88;;;21.87;100.00
46955;BME280;32708;51.212;6.788;2023-05-08T01:46:50;101404.78;;;22.01;100.00
46955;BME280;32708;51.212;6.788;2023-05-08T01:49:26;101401.25;;;22.04;100.00
46955;BME280;32708;51.212;6.788;2023-05-08T01:52:04;101414.88;;;22.12;100.00
46955;BME280;32708;51.212;6.788;2023-05-08T01:54:43;101413.88;;;21.64;100.00
46955;BME280;32708;51.212;6.788;2023-05-08T01:57:17;101427.41;;;21.35;100.00
46955;BME280;32708;51.212;6.788;2023-05-08T01:59:46;101412.16;;;21.86;100.00
46955;BME280;32708;51.212;6.788;2023-05-08T02:02:17;101419.31;;;21.53;100.00
46955;BME280;32708;51.212;6.788;2023-05-08T02:04:44;101419.50;;;22.01;100.00
46955;BME280;32708;51.212;6.788;2023-05-08T02:07:11;101417.47;;;21.98;100.00
46955;BME280;32708;51.212;6.788;2023-05-08T02:09:41;101423.09;;;21.38;100.00
46955;BME280;32708;51.212;6.788;2023-05-08T02:12:11;101429.81;;;21.37;100.00
46955;BME280;32708;51.212;6.788;2023-05-08T02:14:41;101431.56;;;21.22;100.00
46955;BME280;32708;51.212;6.788;2023-05-08T02:17:10;101425.63;;;21.24;100.00
46955;BME280;32708;51.212;6.788;2023-05-08T02:19:40;101429.91;;;21.17;100.00
46955;BME280;32708;51.212;6.788;2023-05-08T02:22:08;101418.91;;;21.25;100.00
46955;BME280;32708;51.212;6.788;2023-05-08T02:24:37;101430.28;;;21.42;100.00
46955;BME280;32708;51.212;6.788;2023-05-08T02:27:05;101427.13;;;21.44;100.00
46955;BME280;32708;51.212;6.788;2023-05-08T02:29:35;101437.41;;;21.40;100.00
46955;BME280;32708;51.212;6.788;2023-05-08T02:32:03;101432.63;;;21.70;100.00
46955;BME280;32708;51.212;6.788;2023-05-08T02:34:31;101436.28;;;21.78;100.00
46955;BME280;32708;51.212;6.788;2023-05-08T02:37:02;101430.63;;;21.67;100.00
46955;BME280;32708;51.212;6.788;2023-05-08T02:39:34;101441.22;;;21.58;100.00
46955;BME280;32708;51.212;6.788;2023-05-08T02:42:02;101430.84;;;21.55;100.00
46955;BME280;32708;51.212;6.788;2023-05-08T02:44:29;101449.28;;;21.14;100.00
46955;BME280;32708;51.212;6.788;2023-05-08T02:47:11;101442.81;;;21.29;100.00
46955;BME280;32708;51.212;6.788;2023-05-08T02:52:29;101437.91;;;21.49;100.00
46955;BME280;32708;51.212;6.788;2023-05-08T02:55:38;101435.94;;;21.23;100.00
46955;BME280;32708;51.212;6.788;2023-05-08T02:58:17;101432.94;;;21.35;100.00
46955;BME280;32708;51.212;6.788;2023-05-08T03:01:04;101429.94;;;21.21;100.00
46955;BME280;32708;51.212;6.788;2023-05-08T03:03:41;101428.53;;;21.31;100.00
46955;BME280;32708;51.212;6.788;2023-05-08T03:06:19;101426.25;;;21.36;100.00
46955;BME280;32708;51.212;6.788;2023-05-08T03:08:50;101422.09;;;21.00;100.00
46955;BME280;32708;51.212;6.788;2023-05-08T03:11:37;101421.72;;;20.75;100.00
46955;BME280;32708;51.212;6.788;2023-05-08T03:14:10;101421.06;;;20.85;100.00
46955;BME280;32708;51.212;6.788;2023-05-08T03:16:42;101424.94;;;20.54;100.00
46955;BME280;32708;51.212;6.788;2023-05-08T03:19:23;101422.69;;;21.13;100.00
46955;BME280;32708;51.212;6.788;2023-05-08T03:21:55;101412.06;;;21.45;100.00
46955;BME280;32708;51.212;6.788;2023-05-08T03:24:26;101416.06;;;21.21;100.00
46955;BME280;32708;51.212;6.788;2023-05-08T03:26:55;101420.94;;;21.28;100.00
46955;BME280;32708;51.212;6.788;2023-05-08T03:29:25;101423.81;;;20.82;100.00
46955;BME280;32708;51.212;6.788;2023-05-08T03:31:56;101423.22;;;20.96;100.00
46955;BME280;32708;51.212;6.788;2023-05-08T03:34:25;101419.66;;;20.95;100.00
46955;BME280;32708;51.212;6.788;2023-05-08T03:36:52;101418.19;;;20.78;100.00
46955;BME280;32708;51.212;6.788;2023-05-08T03:39:18;101420.94;;;21.01;100.00
46955;BME280;32708;51.212;6.788;2023-05-08T03:41:45;101427.44;;;20.40;100.00
46955;BME280;32708;51.212;6.788;2023-05-08T03:44:14;101419.91;;;20.18;100.00
46955;BME280;32708;51.212;6.788;2023-05-08T03:46:43;101420.22;;;20.35;100.00
46955;BME280;32708;51.212;6.788;2023-05-08T03:49:11;101422.91;;;20.09;100.00
46955;BME280;32708;51.212;6.788;2023-05-08T03:51:39;101421.75;;;20.33;100.00
46955;BME280;32708;51.212;6.788;2023-05-08T03:54:05;101432.41;;;20.08;100.00
46955;BME280;32708;51.212;6.788;2023-05-08T03:56:32;101432.59;;;20.19;100.00
46955;BME280;32708;51.212;6.788;2023-05-08T03:59:53;101422.13;;;20.51;100.00
46955;BME280;32708;51.212;6.788;2023-05-08T04:02:35;101425.06;;;20.19;100.00
46955;BME280;32708;51.212;6.788;2023-05-08T04:05:34;101425.72;;;20.55;100.00
46955;BME280;32708;51.212;6.788;2023-05-08T04:08:24;101434.78;;;20.29;100.00
46955;BME280;32708;51.212;6.788;2023-05-08T04:13:47;101437.91;;;20.96;100.00
46955;BME280;32708;51.212;6.788;2023-05-08T04:16:23;101440.81;;;21.03;100.00
46955;BME280;32708;51.212;6.788;2023-05-08T04:19:10;101440.50;;;21.08;100.00
46955;BME280;32708;51.212;6.788;2023-05-08T04:21:43;101429.34;;;21.31;100.00
46955;BME280;32708;51.212;6.788;2023-05-08T04:24:16;101431.72;;;21.06;100.00
46955;BME280;32708;51.212;6.788;2023-05-08T04:26:45;101436.84;;;21.04;100.00
46955;BME280;32708;51.212;6.788;2023-05-08T04:29:12;101433.75;;;21.09;100.00
46955;BME280;32708;51.212;6.788;2023-05-08T04:31:42;101438.66;;;21.20;100.00
46955;BME280;32708;51.212;6.788;2023-05-08T04:34:09;101443.31;;;21.12;100.00
46955;BME280;32708;51.212;6.788;2023-05-08T04:36:36;101451.13;;;20.57;100.00
46955;BME280;32708;51.212;6.788;2023-05-08T04:39:04;101440.09;;;20.60;100.00
46955;BME280;32708;51.212;6.788;2023-05-08T04:41:30;101451.78;;;20.96;100.00
46955;BME280;32708;51.212;6.788;2023-05-08T04:43:58;101446.34;;;21.03;100.00
46955;BME280;32708;51.212;6.788;2023-05-08T04:46:24;101446.69;;;20.75;100.00
46955;BME280;32708;51.212;6.788;2023-05-08T04:48:50;101440.50;;;20.85;100.00
46955;BME280;32708;51.212;6.788;2023-05-08T04:51:17;101452.94;;;20.46;100.00
46955;BME280;32708;51.212;6.788;2023-05-08T04:53:43;101445.69;;;20.41;100.00
46955;BME280;32708;51.212;6.788;2023-05-08T04:56:09;101450.66;;;20.32;100.00
46955;BME280;32708;51.212;6.788;2023-05-08T04:58:35;101457.00;;;20.52;100.00
46955;BME280;32708;51.212;6.788;2023-05-08T05:01:03;101447.63;;;21.09;100.00
46955;BME280;32708;51.212;6.788;2023-05-08T05:03:31;101455.03;;;20.52;100.00
46955;BME280;32708;51.212;6.788;2023-05-08T05:05:58;101461.63;;;20.05;100.00
46955;BME280;32708;51.212;6.788;2023-05-08T05:08:25;101466.22;;;20.17;100.00
46955;BME280;32708;51.212;6.788;2023-05-08T05:10:53;101465.47;;;20.40;100.00
46955;BME280;32708;51.212;6.788;2023-05-08T05:13:19;101459.16;;;20.43;100.00
46955;BME280;32708;51.212;6.788;2023-05-08T05:15:45;101469.56;;;20.69;100.00
46955;BME280;32708;51.212;6.788;2023-05-08T05:18:12;101462.28;;;20.83;100.00
46955;BME280;32708;51.212;6.788;2023-05-08T05:20:39;101473.16;;;21.19;100.00
46955;BME280;32708;51.212;6.788;2023-05-08T05:23:05;101470.81;;;20.94;100.00
46955;BME280;32708;51.212;6.788;2023-05-08T05:25:31;101473.09;;;20.88;100.00
46955;BME280;32708;51.212;6.788;2023-05-08T05:27:58;101474.97;;;20.39;100.00
46955;BME280;32708;51.212;6.788;2023-05-08T05:30:28;101473.66;;;20.52;100.00
46955;BME280;32708;51.212;6.788;2023-05-08T05:32:55;101470.25;;;20.62;100.00
46955;BME280;32708;51.212;6.788;2023-05-08T05:35:22;101473.34;;;21.06;100.00
46955;BME280;32708;51.212;6.788;2023-05-08T05:37:48;101470.09;;;21.27;100.00
46955;BME280;32708;51.212;6.788;2023-05-08T05:40:14;101467.91;;;21.13;100.00
46955;BME280;32708;51.212;6.788;2023-05-08T05:42:42;101477.75;;;21.30;100.00
46955;BME280;32708;51.212;6.788;2023-05-08T05:45:16;101474.19;;;20.61;100.00
46955;BME280;32708;51.212;6.788;2023-05-08T05:47:46;101474.81;;;20.97;100.00
46955;BME280;32708;51.212;6.788;2023-05-08T05:50:18;101477.53;;;21.20;100.00
46955;BME280;32708;51.212;6.788;2023-05-08T05:52:45;101476.25;;;20.87;100.00
46955;BME280;32708;51.212;6.788;2023-05-08T05:55:12;101482.13;;;20.20;100.00
46955;BME280;32708;51.212;6.788;2023-05-08T05:57:38;101491.66;;;20.61;100.00
46955;BME280;32708;51.212;6.788;2023-05-08T06:00:06;101479.41;;;21.12;100.00
46955;BME280;32708;51.212;6.788;2023-05-08T06:02:40;101481.19;;;20.74;100.00
46955;BME280;32708;51.212;6.788;2023-05-08T06:05:08;101485.69;;;20.59;100.00
46955;BME280;32708;51.212;6.788;2023-05-08T06:07:34;101485.53;;;20.98;100.00
46955;BME280;32708;51.212;6.788;2023-05-08T06:10:02;101490.97;;;20.91;100.00
46955;BME280;32708;51.212;6.788;2023-05-08T06:12:29;101483.16;;;21.23;100.00
46955;BME280;32708;51.212;6.788;2023-05-08T06:14:57;101485.78;;;20.89;100.00
46955;BME280;32708;51.212;6.788;2023-05-08T06:17:23;101478.50;;;21.04;100.00
46955;BME280;32708;51.212;6.788;2023-05-08T06:19:52;101479.03;;;20.87;100.00
46955;BME280;32708;51.212;6.788;2023-05-08T06:22:20;101490.53;;;20.24;100.00
46955;BME280;32708;51.212;6.788;2023-05-08T06:24:50;101479.28;;;21.05;100.00
46955;BME280;32708;51.212;6.788;2023-05-08T06:27:20;101480.19;;;20.86;100.00
46955;BME280;32708;51.212;6.788;2023-05-08T06:29:48;101484.09;;;21.31;100.00
46955;BME280;32708;51.212;6.788;2023-05-08T06:32:19;101471.28;;;22.13;100.00
46955;BME280;32708;51.212;6.788;2023-05-08T06:34:46;101484.13;;;20.85;100.00
46955;BME280;32708;51.212;6.788;2023-05-08T06:37:15;101472.72;;;21.39;100.00
46955;BME280;32708;51.212;6.788;2023-05-08T06:39:42;101463.22;;;22.04;100.00
46955;BME280;32708;51.212;6.788;2023-05-08T06:42:08;101478.25;;;21.39;100.00
46955;BME280;32708;51.212;6.788;2023-05-08T06:44:38;101477.72;;;21.87;100.00
46955;BME280;32708;51.212;6.788;2023-05-08T06:47:05;101457.66;;;23.30;94.37
46955;BME280;32708;51.212;6.788;2023-05-08T06:49:35;101470.63;;;23.67;91.74
46955;BME280;32708;51.212;6.788;2023-05-08T06:52:02;101456.16;;;24.62;86.34
46955;BME280;32708;51.212;6.788;2023-05-08T06:54:28;101458.94;;;24.91;83.18
46955;BME280;32708;51.212;6.788;2023-05-08T06:56:54;101476.78;;;23.39;87.38
46955;BME280;32708;51.212;6.788;2023-05-08T06:59:21;101473.53;;;24.06;86.14
46955;BME280;32708;51.212;6.788;2023-05-08T07:01:48;101486.31;;;22.42;93.60
46955;BME280;32708;51.212;6.788;2023-05-08T07:04:14;101471.34;;;25.08;82.13
46955;BME280;32708;51.212;6.788;2023-05-08T07:06:41;101462.69;;;26.00;77.35
46955;BME280;32708;51.212;6.788;2023-05-08T07:09:07;101469.72;;;25.10;78.66
46955;BME280;32708;51.212;6.788;2023-05-08T07:11:34;101466.41;;;26.49;74.96
46955;BME280;32708;51.212;6.788;2023-05-08T07:14:01;101451.25;;;26.36;74.27
46955;BME280;32708;51.212;6.788;2023-05-08T07:16:27;101468.50;;;25.25;75.62
46955;BME280;32708;51.212;6.788;2023-05-08T07:18:53;101458.41;;;28.09;69.05
46955;BME280;32708;51.212;6.788;2023-05-08T07:21:19;101471.59;;;26.99;69.36
46955;BME280;32708;51.212;6.788;2023-05-08T07:23:46;101475.53;;;25.94;74.06
46955;BME280;32708;51.212;6.788;2023-05-08T07:26:13;101472.91;;;27.74;66.75
46955;BME280;32708;51.212;6.788;2023-05-08T07:28:40;101491.41;;;26.12;70.52
46955;BME280;32708;51.212;6.788;2023-05-08T07:31:06;101493.59;;;25.54;75.74
46955;BME280;32708;51.212;6.788;2023-05-08T07:33:32;101501.97;;;24.40;79.42
46955;BME280;32708;51.212;6.788;2023-05-08T07:36:00;101501.47;;;26.02;73.13
46955;BME280;32708;51.212;6.788;2023-05-08T07:38:26;101502.66;;;26.71;70.22
46955;BME280;32708;51.212;6.788;2023-05-08T07:40:52;101496.34;;;27.15;68.39
46955;BME280;32708;51.212;6.788;2023-05-08T07:43:22;101498.47;;;26.97;68.50
46955;BME280;32708;51.212;6.788;2023-05-08T07:45:49;101508.03;;;26.47;70.29
46955;BME280;32708;51.212;6.788;2023-05-08T07:48:16;101510.66;;;25.99;72.96
46955;BME280;32708;51.212;6.788;2023-05-08T07:50:42;101513.22;;;24.93;75.98
46955;BME280;32708;51.212;6.788;2023-05-08T07:53:09;101512.00;;;24.91;77.30
46955;BME280;32708;51.212;6.788;2023-05-08T07:55:35;101512.31;;;25.89;75.14
46955;BME280;32708;51.212;6.788;2023-05-08T07:58:01;101514.13;;;26.28;72.99
46955;BME280;32708;51.212;6.788;2023-05-08T08:00:28;101502.06;;;26.38;71.58
46955;BME280;32708;51.212;6.788;2023-05-08T08:02:54;101504.28;;;26.68;70.45
46955;BME280;32708;51.212;6.788;2023-05-08T08:05:21;101497.06;;;26.74;68.51
46955;BME280;32708;51.212;6.788;2023-05-08T08:07:47;101520.41;;;25.37;75.39
46955;BME280;32708;51.212;6.788;2023-05-08T08:10:14;101506.16;;;26.23;71.54
46955;BME280;32708;51.212;6.788;2023-05-08T08:12:40;101520.16;;;23.98;80.95
46955;BME280;32708;51.212;6.788;2023-05-08T08:15:07;101517.22;;;24.89;79.67
46955;BME280;32708;51.212;6.788;2023-05-08T08:17:34;101518.81;;;24.93;78.31
46955;BME280;32708;51.212;6.788;2023-05-08T08:20:00;101523.94;;;23.61;85.47
46955;BME280;32708;51.212;6.788;2023-05-08T08:22:27;101523.63;;;23.74;86.18
46955;BME280;32708;51.212;6.788;2023-05-08T08:24:56;101516.25;;;24.17;84.79
46955;BME280;32708;51.212;6.788;2023-05-08T08:27:23;101521.03;;;23.44;88.29
46955;BME280;32708;51.212;6.788;2023-05-08T08:29:49;101515.91;;;23.56;87.83
46955;BME280;32708;51.212;6.788;2023-05-08T08:32:15;101522.59;;;24.14;87.24
46955;BME280;32708;51.212;6.788;2023-05-08T08:34:42;101519.06;;;24.31;84.67
46955;BME280;32708;51.212;6.788;2023-05-08T08:37:08;101526.59;;;23.44;89.04
46955;BME280;32708;51.212;6.788;2023-05-08T08:39:35;101519.41;;;24.12;87.89
46955;BME280;32708;51.212;6.788;2023-05-08T08:42:01;101516.63;;;24.19;86.65
46955;BME280;32708;51.212;6.788;2023-05-08T08:44:29;101524.69;;;23.58;88.35
46955;BME280;32708;51.212;6.788;2023-05-08T08:46:58;101516.22;;;24.13;87.10
46955;BME280;32708;51.212;6.788;2023-05-08T08:49:34;101521.78;;;23.41;90.18
46955;BME280;32708;51.212;6.788;2023-05-08T08:52:26;101537.00;;;22.62;95.37
46955;BME280;32708;51.212;6.788;2023-05-08T08:54:59;101534.28;;;22.65;97.34
46955;BME280;32708;51.212;6.788;2023-05-08T08:57:31;101528.28;;;23.59;91.89
46955;BME280;32708;51.212;6.788;2023-05-08T09:00:06;101540.66;;;22.32;97.31
46955;BME280;32708;51.212;6.788;2023-05-08T09:02:34;101535.59;;;22.41;97.83
46955;BME280;32708;51.212;6.788;2023-05-08T09:05:02;101524.22;;;23.46;92.27
46955;BME280;32708;51.212;6.788;2023-05-08T09:07:29;101522.22;;;24.19;88.18
46955;BME280;32708;51.212;6.788;2023-05-08T09:09:56;101533.31;;;24.01;89.94
46955;BME280;32708;51.212;6.788;2023-05-08T09:12:22;101522.50;;;23.93;89.18
46955;BME280;32708;51.212;6.788;2023-05-08T09:14:49;101514.00;;;24.90;84.07
46955;BME280;32708;51.212;6.788;2023-05-08T09:17:16;101525.19;;;24.94;84.53
46955;BME280;32708;51.212;6.788;2023-05-08T09:19:42;101530.00;;;24.93;83.41
46955;BME280;32708;51.212;6.788;2023-05-08T09:22:11;101533.72;;;23.41;89.58
46955;BME280;32708;51.212;6.788;2023-05-08T09:24:59;101527.81;;;24.23;86.73
46955;BME280;32708;51.212;6.788;2023-05-08T09:27:28;101526.41;;;25.18;82.54
46955;BME280;32708;51.212;6.788;2023-05-08T09:30:05;101533.97;;;23.77;89.88
46955;BME280;32708;51.212;6.788;2023-05-08T09:32:36;101528.66;;;23.54;89.79
46955;BME280;32708;51.212;6.788;2023-05-08T09:35:06;101536.13;;;22.91;93.37
46955;BME280;32708;51.212;6.788;2023-05-08T09:37:33;101523.59;;;23.67;89.86
46955;BME280;32708;51.212;6.788;2023-05-08T09:40:15;101521.72;;;23.96;88.76
46955;BME280;32708;51.212;6.788;2023-05-08T09:42:42;101523.19;;;24.73;85.25
46955;BME280;32708;51.212;6.788;2023-05-08T09:45:09;101529.00;;;24.22;87.43
46955;BME280;32708;51.212;6.788;2023-05-08T09:47:36;101521.91;;;24.38;85.42
46955;BME280;32708;51.212;6.788;2023-05-08T09:50:09;101522.78;;;24.75;83.46
46955;BME280;32708;51.212;6.788;2023-05-08T09:52:38;101524.59;;;24.17;86.18
46955;BME280;32708;51.212;6.788;2023-05-08T09:55:10;101509.22;;;24.91;82.05
46955;BME280;32708;51.212;6.788;2023-05-08T09:57:50;101515.50;;;24.31;85.32
46955;BME280;32708;51.212;6.788;2023-05-08T10:00:17;101512.41;;;24.86;82.41
46955;BME280;32708;51.212;6.788;2023-05-08T10:03:02;101516.03;;;24.93;81.75
46955;BME280;32708;51.212;6.788;2023-05-08T10:05:31;101515.19;;;25.46;80.44
46955;BME280;32708;51.212;6.788;2023-05-08T10:08:22;101512.81;;;25.45;79.41
46955;BME280;32708;51.212;6.788;2023-05-08T10:10:49;101508.78;;;24.57;82.42
46955;BME280;32708;51.212;6.788;2023-05-08T10:13:15;101509.72;;;23.84;85.66
46955;BME280;32708;51.212;6.788;2023-05-08T10:15:44;101505.16;;;23.55;86.85
46955;BME280;32708;51.212;6.788;2023-05-08T10:18:12;101500.81;;;25.44;80.13
46955;BME280;32708;51.212;6.788;2023-05-08T10:20:42;101506.00;;;25.35;79.71
46955;BME280;32708;51.212;6.788;2023-05-08T10:23:16;101497.63;;;24.99;81.01
46955;BME280;32708;51.212;6.788;2023-05-08T10:25:54;101486.16;;;26.87;72.89
46955;BME280;32708;51.212;6.788;2023-05-08T10:28:56;101476.94;;;26.86;69.49
46955;BME280;32708;51.212;6.788;2023-05-08T10:31:45;101482.06;;;26.36;71.22
46955;BME280;32708;51.212;6.788;2023-05-08T10:34:21;101473.06;;;26.70;70.40
46955;BME280;32708;51.212;6.788;2023-05-08T10:36:49;101478.97;;;26.79;68.70
46955;BME280;32708;51.212;6.788;2023-05-08T10:39:19;101467.22;;;27.77;65.53
46955;BME280;32708;51.212;6.788;2023-05-08T10:41:48;101471.00;;;26.15;69.66
46955;BME280;32708;51.212;6.788;2023-05-08T10:44:15;101467.63;;;26.97;67.89
46955;BME280;32708;51.212;6.788;2023-05-08T10:46:53;101465.59;;;27.42;65.76
46955;BME280;32708;51.212;6.788;2023-05-08T10:49:47;101483.22;;;26.49;68.01
46955;BME280;32708;51.212;6.788;2023-05-08T10:52:33;101473.66;;;27.40;64.70
46955;BME280;32708;51.212;6.788;2023-05-08T10:55:27;101465.47;;;27.90;61.71
46955;BME280;32708;51.212;6.788;2023-05-08T11:03:26;101461.94;;;27.83;61.19
46955;BME280;32708;51.212;6.788;2023-05-08T11:05:55;101455.03;;;28.72;58.52
46955;BME280;32708;51.212;6.788;2023-05-08T11:08:27;101450.63;;;28.71;56.91
46955;BME280;32708;51.212;6.788;2023-05-08T11:13:50;101472.25;;;26.06;63.40
46955;BME280;32708;51.212;6.788;2023-05-08T11:19:22;101460.16;;;26.83;61.12
46955;BME280;32708;51.212;6.788;2023-05-08T11:22:25;101456.44;;;26.93;62.45
46955;BME280;32708;51.212;6.788;2023-05-08T11:30:37;101451.03;;;27.58;62.30
46955;BME280;32708;51.212;6.788;2023-05-08T11:38:29;101448.22;;;27.58;58.97
46955;BME280;32708;51.212;6.788;2023-05-08T11:41:19;101450.13;;;28.25;57.38
46955;BME280;32708;51.212;6.788;2023-05-08T11:46:54;101444.44;;;27.72;58.10
46955;BME280;32708;51.212;6.788;2023-05-08T11:49:24;101450.53;;;26.84;59.53
46955;BME280;32708;51.212;6.788;2023-05-08T11:51:53;101448.44;;;26.95;60.23
46955;BME280;32708;51.212;6.788;2023-05-08T11:54:24;101448.19;;;27.92;57.13
46955;BME280;32708;51.212;6.788;2023-05-08T11:56:54;101442.97;;;27.94;56.68
46955;BME280;32708;51.212;6.788;2023-05-08T11:59:20;101439.44;;;27.18;59.56
46955;BME280;32708;51.212;6.788;2023-05-08T12:01:51;101447.03;;;27.18;58.20
46955;BME280;32708;51.212;6.788;2023-05-08T12:04:17;101459.06;;;27.14;60.83
46955;BME280;32708;51.212;6.788;2023-05-08T12:06:43;101450.81;;;26.52;62.23
46955;BME280;32708;51.212;6.788;2023-05-08T12:09:17;101449.72;;;26.31;61.63
46955;BME280;32708;51.212;6.788;2023-05-08T12:11:45;101453.84;;;26.05;63.92
46955;BME280;32708;51.212;6.788;2023-05-08T12:14:12;101464.34;;;25.87;64.82
46955;BME280;32708;51.212;6.788;2023-05-08T12:16:42;101468.09;;;25.31;68.35
46955;BME280;32708;51.212;6.788;2023-05-08T12:19:10;101457.59;;;25.77;66.33
46955;BME280;32708;51.212;6.788;2023-05-08T12:21:38;101462.44;;;26.47;66.07
46955;BME280;32708;51.212;6.788;2023-05-08T12:24:10;101459.13;;;26.63;65.35
46955;BME280;32708;51.212;6.788;2023-05-08T12:26:37;101452.75;;;27.03;65.05
46955;BME280;32708;51.212;6.788;2023-05-08T12:29:07;101453.88;;;26.68;65.38
46955;BME280;32708;51.212;6.788;2023-05-08T12:31:37;101453.88;;;26.65;64.96
46955;BME280;32708;51.212;6.788;2023-05-08T12:34:05;101459.47;;;27.17;63.82
46955;BME280;32708;51.212;6.788;2023-05-08T12:36:35;101453.69;;;26.34;65.26
46955;BME280;32708;51.212;6.788;2023-05-08T12:39:13;101459.72;;;25.38;68.63
46955;BME280;32708;51.212;6.788;2023-05-08T12:44:22;101448.72;;;26.00;65.91
46955;BME280;32708;51.212;6.788;2023-05-08T12:46:50;101437.59;;;26.52;63.52
46955;BME280;32708;51.212;6.788;2023-05-08T12:49:37;101434.81;;;26.97;61.06
46955;BME280;32708;51.212;6.788;2023-05-08T12:52:07;101438.47;;;26.42;63.63
46955;BME280;32708;51.212;6.788;2023-05-08T12:54:39;101435.66;;;26.91;63.67
46955;BME280;32708;51.212;6.788;2023-05-08T12:57:17;101439.25;;;26.43;65.34
46955;BME280;32708;51.212;6.788;2023-05-08T12:59:45;101435.28;;;26.37;66.19
46955;BME280;32708;51.212;6.788;2023-05-08T13:02:21;101444.19;;;24.83;72.13
46955;BME280;32708;51.212;6.788;2023-05-08T13:04:55;101441.22;;;25.69;71.35
46955;BME280;32708;51.212;6.788;2023-05-08T13:07:21;101432.00;;;25.86;70.05
46955;BME280;32708;51.212;6.788;2023-05-08T13:09:59;101441.19;;;25.83;69.92
46955;BME280;32708;51.212;6.788;2023-05-08T13:12:31;101430.91;;;25.48;73.13
46955;BME280;32708;51.212;6.788;2023-05-08T13:14:57;101429.78;;;25.13;76.01
46955;BME280;32708;51.212;6.788;2023-05-08T13:17:23;101428.38;;;25.89;73.08
46955;BME280;32708;51.212;6.788;2023-05-08T13:19:50;101426.00;;;25.84;71.90
46955;BME280;32708;51.212;6.788;2023-05-08T13:22:16;101429.47;;;26.06;69.32
46955;BME280;32708;51.212;6.788;2023-05-08T13:24:42;101420.19;;;25.25;73.45
46955;BME280;32708;51.212;6.788;2023-05-08T13:27:08;101420.47;;;25.66;71.82
46955;BME280;32708;51.212;6.788;2023-05-08T13:29:34;101421.44;;;24.95;76.27
46955;BME280;32708;51.212;6.788;2023-05-08T13:32:00;101411.03;;;25.07;75.20
46955;BME280;32708;51.212;6.788;2023-05-08T13:34:26;101419.75;;;25.44;73.18
46955;BME280;32708;51.212;6.788;2023-05-08T13:36:53;101426.63;;;24.68;74.70
46955;BME280;32708;51.212;6.788;2023-05-08T13:39:19;101420.53;;;25.41;74.18
46955;BME280;32708;51.212;6.788;2023-05-08T13:41:45;101417.28;;;25.57;72.40
46955;BME280;32708;51.212;6.788;2023-05-08T13:44:11;101410.72;;;25.99;71.12
46955;BME280;32708;51.212;6.788;2023-05-08T13:46:37;101407.97;;;25.92;69.47
46955;BME280;32708;51.212;6.788;2023-05-08T13:49:03;101407.91;;;26.03;70.28